sensor_id;sensor_type;location;lat;lon;timestamp;temperature;humidity
68813;DHT22;55808;48.112;11.552;2022-11-15T00:01:37;3.50;99.90
68813;DHT22;55808;48.112;11.552;2022-11-15T00:04:05;3.50;99.90
68813;DHT22;55808;48.112;11.552;2022-11-15T00:06:31;3.40;99.90
68813;DHT22;55808;48.112;11.552;2022-11-15T00:08:58;3.40;99.90
68813;DHT22;55808;48.112;11.552;2022-11-15T00:11:24;3.40;99.90
68813;DHT22;55808;48.112;11.552;2022-11-15T00:13:50;3.40;99.90
68813;DHT22;55808;48.112;11.552;2022-11-15T00:16:16;3.40;99.90
68813;DHT22;55808;48.112;11.552;2022-11-15T00:18:42;3.40;99.90
68813;DHT22;55808;48.112;11.552;2022-11-15T00:21:11;3.40;99.90
68813;DHT22;55808;48.112;11.552;2022-11-15T00:23:36;3.40;99.90
68813;DHT22;55808;48.112;11.552;2022-11-15T00:26:02;3.40;99.90
68813;DHT22;55808;48.112;11.552;2022-11-15T00:28:29;3.30;99.90
68813;DHT22;55808;48.112;11.552;2022-11-15T00:31:00;3.30;99.90
68813;DHT22;55808;48.112;11.552;2022-11-15T00:33:26;3.30;99.90
68813;DHT22;55808;48.112;11.552;2022-11-15T00:35:52;3.20;99.90
68813;DHT22;55808;48.112;11.552;2022-11-15T00:38:17;3.30;99.90
68813;DHT22;55808;48.112;11.552;2022-11-15T00:40:43;3.30;99.90
68813;DHT22;55808;48.112;11.552;2022-11-15T00:43:08;3.30;99.90
68813;DHT22;55808;48.112;11.552;2022-11-15T00:45:34;3.30;99.90
68813;DHT22;55808;48.112;11.552;2022-11-15T00:48:00;3.20;99.90
68813;DHT22;55808;48.112;11.552;2022-11-15T00:50:25;3.20;99.90
68813;DHT22;55808;48.112;11.552;2022-11-15T00:52:51;3.20;99.90
68813;DHT22;55808;48.112;11.552;2022-11-15T00:55:17;3.20;99.90
68813;DHT22;55808;48.112;11.552;2022-11-15T00:57:43;3.10;99.90
68813;DHT22;55808;48.112;11.552;2022-11-15T01:00:10;3.10;99.90
68813;DHT22;55808;48.112;11.552;2022-11-15T01:02:36;3.00;99.90
68813;DHT22;55808;48.112;11.552;2022-11-15T01:05:02;3.10;99.90
68813;DHT22;55808;48.112;11.552;2022-11-15T01:07:27;3.00;99.90
68813;DHT22;55808;48.112;11.552;2022-11-15T01:09:53;3.00;99.90
68813;DHT22;55808;48.112;11.552;2022-11-15T01:12:19;3.00;99.90
68813;DHT22;55808;48.112;11.552;2022-11-15T01:14:44;3.00;99.90
68813;DHT22;55808;48.112;11.552;2022-11-15T01:17:10;3.00;99.90
68813;DHT22;55808;48.112;11.552;2022-11-15T01:19:35;3.00;99.90
68813;DHT22;55808;48.112;11.552;2022-11-15T01:22:01;3.00;99.90
68813;DHT22;55808;48.112;11.552;2022-11-15T01:24:27;3.00;99.90
68813;DHT22;55808;48.112;11.552;2022-11-15T01:26:53;2.90;99.90
68813;DHT22;55808;48.112;11.552;2022-11-15T01:29:18;2.90;99.90
68813;DHT22;55808;48.112;11.552;2022-11-15T01:31:44;2.80;99.90
68813;DHT22;55808;48.112;11.552;2022-11-15T01:34:09;2.80;99.90
68813;DHT22;55808;48.112;11.552;2022-11-15T01:36:35;2.70;99.90
68813;DHT22;55808;48.112;11.552;2022-11-15T01:39:01;2.80;99.90
68813;DHT22;55808;48.112;11.552;2022-11-15T01:41:30;2.80;99.90
68813;DHT22;55808;48.112;11.552;2022-11-15T01:44:25;2.80;99.90
68813;DHT22;55808;48.112;11.552;2022-11-15T01:46:46;2.80;99.90
68813;DHT22;55808;48.112;11.552;2022-11-15T01:49:16;2.80;99.90
68813;DHT22;55808;48.112;11.552;2022-11-15T01:51:42;2.70;99.90
68813;DHT22;55808;48.112;11.552;2022-11-15T01:54:12;2.70;99.90
68813;DHT22;55808;48.112;11.552;2022-11-15T01:56:47;2.70;99.90
68813;DHT22;55808;48.112;11.552;2022-11-15T01:59:16;2.70;99.90
68813;DHT22;55808;48.112;11.552;2022-11-15T02:01:42;2.80;99.90
68813;DHT22;55808;48.112;11.552;2022-11-15T02:04:34;2.80;99.90
68813;DHT22;55808;48.112;11.552;2022-11-15T02:06:58;2.80;99.90
68813;DHT22;55808;48.112;11.552;2022-11-15T02:09:24;2.70;99.90
68813;DHT22;55808;48.112;11.552;2022-11-15T02:11:51;2.70;99.90
68813;DHT22;55808;48.112;11.552;2022-11-15T02:14:20;2.70;99.90
68813;DHT22;55808;48.112;11.552;2022-11-15T02:17:04;2.70;99.90
68813;DHT22;55808;48.112;11.552;2022-11-15T02:22:36;2.60;99.90
68813;DHT22;55808;48.112;11.552;2022-11-15T02:31:10;2.70;99.90
68813;DHT22;55808;48.112;11.552;2022-11-15T02:40:05;2.60;99.90
68813;DHT22;55808;48.112;11.552;2022-11-15T02:42:39;2.60;99.90
68813;DHT22;55808;48.112;11.552;2022-11-15T02:45:32;2.60;99.90
68813;DHT22;55808;48.112;11.552;2022-11-15T02:48:01;2.60;99.90
68813;DHT22;55808;48.112;11.552;2022-11-15T02:50:29;2.50;99.90
68813;DHT22;55808;48.112;11.552;2022-11-15T02:52:57;2.50;99.90
68813;DHT22;55808;48.112;11.552;2022-11-15T02:55:33;2.50;99.90
68813;DHT22;55808;48.112;11.552;2022-11-15T03:06:49;2.50;99.90
68813;DHT22;55808;48.112;11.552;2022-11-15T03:09:35;2.50;99.90
68813;DHT22;55808;48.112;11.552;2022-11-15T03:12:08;2.50;99.90
68813;DHT22;55808;48.112;11.552;2022-11-15T03:14:47;2.50;99.90
68813;DHT22;55808;48.112;11.552;2022-11-15T03:17:33;2.50;99.90
68813;DHT22;55808;48.112;11.552;2022-11-15T03:20:02;2.50;99.90
68813;DHT22;55808;48.112;11.552;2022-11-15T03:22:35;2.50;99.90
68813;DHT22;55808;48.112;11.552;2022-11-15T03:25:06;2.50;99.90
68813;DHT22;55808;48.112;11.552;2022-11-15T03:27:38;2.40;99.90
68813;DHT22;55808;48.112;11.552;2022-11-15T03:30:07;2.30;99.90
68813;DHT22;55808;48.112;11.552;2022-11-15T03:32:38;2.30;99.90
68813;DHT22;55808;48.112;11.552;2022-11-15T03:35:15;2.20;99.90
68813;DHT22;55808;48.112;11.552;2022-11-15T03:37:56;2.10;99.90
68813;DHT22;55808;48.112;11.552;2022-11-15T03:40:29;2.10;99.90
68813;DHT22;55808;48.112;11.552;2022-11-15T03:46:26;2.10;99.90
68813;DHT22;55808;48.112;11.552;2022-11-15T03:48:59;2.10;99.90
68813;DHT22;55808;48.112;11.552;2022-11-15T03:51:25;2.00;99.90
68813;DHT22;55808;48.112;11.552;2022-11-15T03:53:51;2.00;99.90
68813;DHT22;55808;48.112;11.552;2022-11-15T03:56:17;2.00;99.90
68813;DHT22;55808;48.112;11.552;2022-11-15T03:58:43;2.10;99.90
68813;DHT22;55808;48.112;11.552;2022-11-15T04:01:08;2.10;99.90
68813;DHT22;55808;48.112;11.552;2022-11-15T04:03:34;2.10;99.90
68813;DHT22;55808;48.112;11.552;2022-11-15T04:05:59;2.10;99.90
68813;DHT22;55808;48.112;11.552;2022-11-15T04:08:25;2.10;99.90
68813;DHT22;55808;48.112;11.552;2022-11-15T04:10:51;2.10;99.90
68813;DHT22;55808;48.112;11.552;2022-11-15T04:13:17;2.10;99.90
68813;DHT22;55808;48.112;11.552;2022-11-15T04:15:42;2.00;99.90
68813;DHT22;55808;48.112;11.552;2022-11-15T04:18:08;2.00;99.90
68813;DHT22;55808;48.112;11.552;2022-11-15T04:20:33;2.00;99.90
68813;DHT22;55808;48.112;11.552;2022-11-15T04:23:20;2.00;99.90
68813;DHT22;55808;48.112;11.552;2022-11-15T04:26:15;2.00;99.90
68813;DHT22;55808;48.112;11.552;2022-11-15T04:28:41;2.00;99.90
68813;DHT22;55808;48.112;11.552;2022-11-15T04:31:26;2.10;99.90
68813;DHT22;55808;48.112;11.552;2022-11-15T04:33:51;2.00;99.90
68813;DHT22;55808;48.112;11.552;2022-11-15T04:36:17;2.00;99.90
68813;DHT22;55808;48.112;11.552;2022-11-15T04:39:01;2.00;99.90
68813;DHT22;55808;48.112;11.552;2022-11-15T04:41:28;1.90;99.90
68813;DHT22;55808;48.112;11.552;2022-11-15T04:43:54;1.90;99.90
68813;DHT22;55808;48.112;11.552;2022-11-15T04:46:21;1.90;99.90
68813;DHT22;55808;48.112;11.552;2022-11-15T04:48:47;1.90;99.90
68813;DHT22;55808;48.112;11.552;2022-11-15T04:51:12;1.90;99.90
68813;DHT22;55808;48.112;11.552;2022-11-15T04:53:38;1.90;99.90
68813;DHT22;55808;48.112;11.552;2022-11-15T04:56:04;1.90;99.90
68813;DHT22;55808;48.112;11.552;2022-11-15T04:58:29;1.90;99.90
68813;DHT22;55808;48.112;11.552;2022-11-15T05:00:55;2.00;99.90
68813;DHT22;55808;48.112;11.552;2022-11-15T05:03:21;2.00;99.90
68813;DHT22;55808;48.112;11.552;2022-11-15T05:06:05;2.00;99.90
68813;DHT22;55808;48.112;11.552;2022-11-15T05:08:32;1.90;99.90
68813;DHT22;55808;48.112;11.552;2022-11-15T05:10:59;1.90;99.90
68813;DHT22;55808;48.112;11.552;2022-11-15T05:13:24;1.80;99.90
68813;DHT22;55808;48.112;11.552;2022-11-15T05:15:50;1.80;99.90
68813;DHT22;55808;48.112;11.552;2022-11-15T05:18:16;1.80;99.90
68813;DHT22;55808;48.112;11.552;2022-11-15T05:20:41;1.80;99.90
68813;DHT22;55808;48.112;11.552;2022-11-15T05:23:07;1.80;99.90
68813;DHT22;55808;48.112;11.552;2022-11-15T05:25:32;1.80;99.90
68813;DHT22;55808;48.112;11.552;2022-11-15T05:27:58;1.70;99.90
68813;DHT22;55808;48.112;11.552;2022-11-15T05:30:24;1.70;99.90
68813;DHT22;55808;48.112;11.552;2022-11-15T05:32:50;1.70;99.90
68813;DHT22;55808;48.112;11.552;2022-11-15T05:35:30;1.70;99.90
68813;DHT22;55808;48.112;11.552;2022-11-15T05:37:57;1.70;99.90
68813;DHT22;55808;48.112;11.552;2022-11-15T05:40:23;1.70;99.90
68813;DHT22;55808;48.112;11.552;2022-11-15T05:42:49;1.70;99.90
68813;DHT22;55808;48.112;11.552;2022-11-15T05:45:15;1.60;99.90
68813;DHT22;55808;48.112;11.552;2022-11-15T05:47:41;1.50;99.90
68813;DHT22;55808;48.112;11.552;2022-11-15T05:50:07;1.50;99.90
68813;DHT22;55808;48.112;11.552;2022-11-15T05:52:36;1.50;99.90
68813;DHT22;55808;48.112;11.552;2022-11-15T05:55:03;1.60;99.90
68813;DHT22;55808;48.112;11.552;2022-11-15T05:57:31;1.60;99.90
68813;DHT22;55808;48.112;11.552;2022-11-15T05:59:56;1.60;99.90
68813;DHT22;55808;48.112;11.552;2022-11-15T06:02:22;1.60;99.90
68813;DHT22;55808;48.112;11.552;2022-11-15T06:04:48;1.60;99.90
68813;DHT22;55808;48.112;11.552;2022-11-15T06:07:14;1.60;99.90
68813;DHT22;55808;48.112;11.552;2022-11-15T06:09:39;1.60;99.90
68813;DHT22;55808;48.112;11.552;2022-11-15T06:12:05;1.60;99.90
68813;DHT22;55808;48.112;11.552;2022-11-15T06:14:31;1.50;99.90
68813;DHT22;55808;48.112;11.552;2022-11-15T06:16:56;1.40;99.90
68813;DHT22;55808;48.112;11.552;2022-11-15T06:19:22;1.40;99.90
68813;DHT22;55808;48.112;11.552;2022-11-15T06:21:48;1.30;99.90
68813;DHT22;55808;48.112;11.552;2022-11-15T06:24:13;1.30;99.90
68813;DHT22;55808;48.112;11.552;2022-11-15T06:26:39;1.40;99.90
68813;DHT22;55808;48.112;11.552;2022-11-15T06:29:05;1.50;99.90
68813;DHT22;55808;48.112;11.552;2022-11-15T06:31:30;1.50;99.90
68813;DHT22;55808;48.112;11.552;2022-11-15T06:33:56;1.60;99.90
68813;DHT22;55808;48.112;11.552;2022-11-15T06:36:22;1.60;99.90
68813;DHT22;55808;48.112;11.552;2022-11-15T06:38:47;1.60;99.90
68813;DHT22;55808;48.112;11.552;2022-11-15T06:41:14;1.50;99.90
68813;DHT22;55808;48.112;11.552;2022-11-15T06:43:40;1.60;99.90
68813;DHT22;55808;48.112;11.552;2022-11-15T06:46:06;1.50;99.90
68813;DHT22;55808;48.112;11.552;2022-11-15T06:48:34;1.40;99.90
68813;DHT22;55808;48.112;11.552;2022-11-15T06:51:01;1.50;99.90
68813;DHT22;55808;48.112;11.552;2022-11-15T06:53:28;1.40;99.90
68813;DHT22;55808;48.112;11.552;2022-11-15T06:55:57;1.40;99.90
68813;DHT22;55808;48.112;11.552;2022-11-15T06:58:23;1.50;99.90
68813;DHT22;55808;48.112;11.552;2022-11-15T07:00:49;1.60;99.90
68813;DHT22;55808;48.112;11.552;2022-11-15T07:03:14;1.60;99.90
68813;DHT22;55808;48.112;11.552;2022-11-15T07:05:40;1.70;99.90
68813;DHT22;55808;48.112;11.552;2022-11-15T07:08:05;1.70;99.90
68813;DHT22;55808;48.112;11.552;2022-11-15T07:10:31;1.70;99.90
68813;DHT22;55808;48.112;11.552;2022-11-15T07:12:57;1.70;99.90
68813;DHT22;55808;48.112;11.552;2022-11-15T07:15:26;1.80;99.90
68813;DHT22;55808;48.112;11.552;2022-11-15T07:17:51;1.80;99.90
68813;DHT22;55808;48.112;11.552;2022-11-15T07:20:18;1.90;99.90
68813;DHT22;55808;48.112;11.552;2022-11-15T07:22:44;2.00;99.90
68813;DHT22;55808;48.112;11.552;2022-11-15T07:25:12;2.00;99.90
68813;DHT22;55808;48.112;11.552;2022-11-15T07:27:38;2.00;99.90
68813;DHT22;55808;48.112;11.552;2022-11-15T07:30:05;2.00;99.90
68813;DHT22;55808;48.112;11.552;2022-11-15T07:32:30;2.00;99.90
68813;DHT22;55808;48.112;11.552;2022-11-15T07:34:56;2.10;99.90
68813;DHT22;55808;48.112;11.552;2022-11-15T07:37:22;2.20;99.90
68813;DHT22;55808;48.112;11.552;2022-11-15T07:39:48;2.30;99.90
68813;DHT22;55808;48.112;11.552;2022-11-15T07:42:16;2.40;99.90
68813;DHT22;55808;48.112;11.552;2022-11-15T07:45:00;2.50;99.90
68813;DHT22;55808;48.112;11.552;2022-11-15T07:47:28;2.60;99.90
68813;DHT22;55808;48.112;11.552;2022-11-15T07:49:54;2.70;99.90
68813;DHT22;55808;48.112;11.552;2022-11-15T07:52:19;2.70;99.90
68813;DHT22;55808;48.112;11.552;2022-11-15T07:54:45;2.70;99.90
68813;DHT22;55808;48.112;11.552;2022-11-15T07:57:11;2.70;99.90
68813;DHT22;55808;48.112;11.552;2022-11-15T07:59:36;2.70;99.90
68813;DHT22;55808;48.112;11.552;2022-11-15T08:02:02;2.80;99.90
68813;DHT22;55808;48.112;11.552;2022-11-15T08:04:27;2.90;99.90
68813;DHT22;55808;48.112;11.552;2022-11-15T08:06:53;3.00;99.90
68813;DHT22;55808;48.112;11.552;2022-11-15T08:09:19;3.00;99.90
68813;DHT22;55808;48.112;11.552;2022-11-15T08:11:44;3.10;99.90
68813;DHT22;55808;48.112;11.552;2022-11-15T08:14:10;3.20;99.90
68813;DHT22;55808;48.112;11.552;2022-11-15T08:16:36;3.20;99.90
68813;DHT22;55808;48.112;11.552;2022-11-15T08:19:01;3.30;99.90
68813;DHT22;55808;48.112;11.552;2022-11-15T08:21:27;3.50;99.90
68813;DHT22;55808;48.112;11.552;2022-11-15T08:23:53;3.60;99.90
68813;DHT22;55808;48.112;11.552;2022-11-15T08:26:18;3.80;99.90
68813;DHT22;55808;48.112;11.552;2022-11-15T08:28:44;3.90;99.90
68813;DHT22;55808;48.112;11.552;2022-11-15T08:31:17;4.10;99.90
68813;DHT22;55808;48.112;11.552;2022-11-15T08:33:43;4.20;99.90
68813;DHT22;55808;48.112;11.552;2022-11-15T08:36:13;4.30;99.90
68813;DHT22;55808;48.112;11.552;2022-11-15T08:38:39;4.40;99.90
68813;DHT22;55808;48.112;11.552;2022-11-15T08:41:05;4.50;99.90
68813;DHT22;55808;48.112;11.552;2022-11-15T08:43:31;4.50;99.90
68813;DHT22;55808;48.112;11.552;2022-11-15T08:45:57;4.70;99.90
68813;DHT22;55808;48.112;11.552;2022-11-15T08:48:23;4.80;99.90
68813;DHT22;55808;48.112;11.552;2022-11-15T08:50:53;4.80;99.90
68813;DHT22;55808;48.112;11.552;2022-11-15T08:53:19;5.00;99.90
68813;DHT22;55808;48.112;11.552;2022-11-15T08:55:45;5.30;99.90
68813;DHT22;55808;48.112;11.552;2022-11-15T08:58:10;5.30;99.90
68813;DHT22;55808;48.112;11.552;2022-11-15T09:00:36;5.30;99.90
68813;DHT22;55808;48.112;11.552;2022-11-15T09:03:05;5.20;99.90
68813;DHT22;55808;48.112;11.552;2022-11-15T09:05:31;5.40;99.90
68813;DHT22;55808;48.112;11.552;2022-11-15T09:07:57;5.50;99.90
68813;DHT22;55808;48.112;11.552;2022-11-15T09:10:22;5.80;98.30
68813;DHT22;55808;48.112;11.552;2022-11-15T09:12:48;5.90;98.30
68813;DHT22;55808;48.112;11.552;2022-11-15T09:15:15;5.80;97.90
68813;DHT22;55808;48.112;11.552;2022-11-15T09:17:41;5.80;98.80
68813;DHT22;55808;48.112;11.552;2022-11-15T09:20:07;6.00;98.60
68813;DHT22;55808;48.112;11.552;2022-11-15T09:22:33;6.00;98.50
68813;DHT22;55808;48.112;11.552;2022-11-15T09:24:59;6.00;98.40
68813;DHT22;55808;48.112;11.552;2022-11-15T09:27:29;6.00;98.80
68813;DHT22;55808;48.112;11.552;2022-11-15T09:29:55;6.00;98.90
68813;DHT22;55808;48.112;11.552;2022-11-15T09:32:21;6.00;98.90
68813;DHT22;55808;48.112;11.552;2022-11-15T09:34:49;6.20;98.20
68813;DHT22;55808;48.112;11.552;2022-11-15T09:37:14;6.10;98.00
68813;DHT22;55808;48.112;11.552;2022-11-15T09:39:40;6.10;98.10
68813;DHT22;55808;48.112;11.552;2022-11-15T09:50:30;6.60;96.60
68813;DHT22;55808;48.112;11.552;2022-11-15T09:52:56;6.50;96.70
68813;DHT22;55808;48.112;11.552;2022-11-15T09:55:32;6.60;95.90
68813;DHT22;55808;48.112;11.552;2022-11-15T09:58:02;6.80;95.50
68813;DHT22;55808;48.112;11.552;2022-11-15T10:00:38;7.00;94.90
68813;DHT22;55808;48.112;11.552;2022-11-15T10:03:18;7.00;95.10
68813;DHT22;55808;48.112;11.552;2022-11-15T10:05:50;7.00;95.40
68813;DHT22;55808;48.112;11.552;2022-11-15T10:11:15;7.30;94.40
68813;DHT22;55808;48.112;11.552;2022-11-15T10:13:45;7.30;94.20
68813;DHT22;55808;48.112;11.552;2022-11-15T10:21:56;7.60;93.90
68813;DHT22;55808;48.112;11.552;2022-11-15T10:24:27;7.60;94.00
68813;DHT22;55808;48.112;11.552;2022-11-15T10:26:56;7.70;92.70
68813;DHT22;55808;48.112;11.552;2022-11-15T10:29:24;7.70;93.10
68813;DHT22;55808;48.112;11.552;2022-11-15T10:31:50;7.60;93.30
68813;DHT22;55808;48.112;11.552;2022-11-15T10:34:18;7.70;92.90
68813;DHT22;55808;48.112;11.552;2022-11-15T10:36:58;7.80;92.70
68813;DHT22;55808;48.112;11.552;2022-11-15T10:39:25;8.00;92.20
68813;DHT22;55808;48.112;11.552;2022-11-15T10:41:51;8.00;92.00
68813;DHT22;55808;48.112;11.552;2022-11-15T10:46:46;8.00;92.20
68813;DHT22;55808;48.112;11.552;2022-11-15T10:49:27;8.20;91.80
68813;DHT22;55808;48.112;11.552;2022-11-15T10:52:02;8.30;91.70
68813;DHT22;55808;48.112;11.552;2022-11-15T10:57:15;8.40;92.00
68813;DHT22;55808;48.112;11.552;2022-11-15T10:59:51;8.50;91.50
68813;DHT22;55808;48.112;11.552;2022-11-15T11:02:37;8.60;91.20
68813;DHT22;55808;48.112;11.552;2022-11-15T11:08:00;8.80;90.70
68813;DHT22;55808;48.112;11.552;2022-11-15T11:10:27;8.80;90.90
68813;DHT22;55808;48.112;11.552;2022-11-15T11:12:53;9.00;90.40
68813;DHT22;55808;48.112;11.552;2022-11-15T11:15:19;9.20;89.90
68813;DHT22;55808;48.112;11.552;2022-11-15T11:23:03;9.90;86.00
68813;DHT22;55808;48.112;11.552;2022-11-15T11:37:24;19.40;54.30
68813;DHT22;55808;48.112;11.552;2022-11-15T11:45:46;20.10;50.70
68813;DHT22;55808;48.112;11.552;2022-11-15T11:48:42;20.00;49.10
68813;DHT22;55808;48.112;11.552;2022-11-15T11:51:34;20.20;48.90
68813;DHT22;55808;48.112;11.552;2022-11-15T11:54:31;20.40;48.40
68813;DHT22;55808;48.112;11.552;2022-11-15T11:57:00;20.50;47.20
68813;DHT22;55808;48.112;11.552;2022-11-15T12:02:17;20.60;46.60
68813;DHT22;55808;48.112;11.552;2022-11-15T12:04:49;20.60;47.20
68813;DHT22;55808;48.112;11.552;2022-11-15T12:07:21;20.50;48.30
68813;DHT22;55808;48.112;11.552;2022-11-15T12:10:04;20.10;49.60
68813;DHT22;55808;48.112;11.552;2022-11-15T12:12:41;19.40;49.20
68813;DHT22;55808;48.112;11.552;2022-11-15T12:15:41;18.70;52.70
68813;DHT22;55808;48.112;11.552;2022-11-15T12:18:13;18.50;51.50
68813;DHT22;55808;48.112;11.552;2022-11-15T12:21:18;18.30;53.10
68813;DHT22;55808;48.112;11.552;2022-11-15T12:23:46;19.00;51.20
68813;DHT22;55808;48.112;11.552;2022-11-15T12:26:20;19.20;50.10
68813;DHT22;55808;48.112;11.552;2022-11-15T12:28:59;19.30;50.80
68813;DHT22;55808;48.112;11.552;2022-11-15T12:34:02;19.80;49.20
68813;DHT22;55808;48.112;11.552;2022-11-15T12:36:38;20.30;48.30
68813;DHT22;55808;48.112;11.552;2022-11-15T12:39:09;20.50;47.50
68813;DHT22;55808;48.112;11.552;2022-11-15T12:41:44;20.30;48.10
68813;DHT22;55808;48.112;11.552;2022-11-15T12:44:11;20.40;48.20
68813;DHT22;55808;48.112;11.552;2022-11-15T13:02:25;20.50;47.50
68813;DHT22;55808;48.112;11.552;2022-11-15T13:04:53;19.90;48.30
68813;DHT22;55808;48.112;11.552;2022-11-15T13:07:54;19.30;50.40
68813;DHT22;55808;48.112;11.552;2022-11-15T13:12:54;18.50;51.70
68813;DHT22;55808;48.112;11.552;2022-11-15T13:17:48;19.10;50.20
68813;DHT22;55808;48.112;11.552;2022-11-15T13:22:48;19.30;51.70
68813;DHT22;55808;48.112;11.552;2022-11-15T13:28:49;19.10;51.50
68813;DHT22;55808;48.112;11.552;2022-11-15T13:33:48;18.70;51.90
68813;DHT22;55808;48.112;11.552;2022-11-15T13:36:25;18.70;51.90
68813;DHT22;55808;48.112;11.552;2022-11-15T13:38:58;18.70;51.90
68813;DHT22;55808;48.112;11.552;2022-11-15T13:41:26;18.50;52.00
68813;DHT22;55808;48.112;11.552;2022-11-15T13:43:55;18.00;54.00
68813;DHT22;55808;48.112;11.552;2022-11-15T13:46:29;17.80;55.20
68813;DHT22;55808;48.112;11.552;2022-11-15T13:49:04;17.60;54.40
68813;DHT22;55808;48.112;11.552;2022-11-15T13:56:47;17.20;54.90
68813;DHT22;55808;48.112;11.552;2022-11-15T13:59:22;16.30;56.90
68813;DHT22;55808;48.112;11.552;2022-11-15T14:01:50;15.80;57.80
68813;DHT22;55808;48.112;11.552;2022-11-15T14:04:20;15.90;58.50
68813;DHT22;55808;48.112;11.552;2022-11-15T14:06:48;15.90;58.40
68813;DHT22;55808;48.112;11.552;2022-11-15T14:09:33;15.50;59.30
68813;DHT22;55808;48.112;11.552;2022-11-15T14:12:01;15.10;59.60
68813;DHT22;55808;48.112;11.552;2022-11-15T14:14:29;14.90;62.10
68813;DHT22;55808;48.112;11.552;2022-11-15T14:17:00;14.90;59.50
68813;DHT22;55808;48.112;11.552;2022-11-15T14:25:18;14.30;63.40
68813;DHT22;55808;48.112;11.552;2022-11-15T14:30:48;14.30;61.40
68813;DHT22;55808;48.112;11.552;2022-11-15T14:33:36;14.40;61.00
68813;DHT22;55808;48.112;11.552;2022-11-15T14:36:12;13.90;62.90
68813;DHT22;55808;48.112;11.552;2022-11-15T14:38:38;13.50;64.60
68813;DHT22;55808;48.112;11.552;2022-11-15T14:41:04;13.20;64.30
68813;DHT22;55808;48.112;11.552;2022-11-15T14:43:31;13.00;65.40
68813;DHT22;55808;48.112;11.552;2022-11-15T14:45:57;12.70;67.30
68813;DHT22;55808;48.112;11.552;2022-11-15T14:48:22;12.40;68.00
68813;DHT22;55808;48.112;11.552;2022-11-15T14:50:48;12.20;66.30
68813;DHT22;55808;48.112;11.552;2022-11-15T14:53:16;12.00;68.10
68813;DHT22;55808;48.112;11.552;2022-11-15T14:55:42;11.90;68.70
68813;DHT22;55808;48.112;11.552;2022-11-15T14:58:09;11.70;69.60
68813;DHT22;55808;48.112;11.552;2022-11-15T15:00:36;11.50;69.50
68813;DHT22;55808;48.112;11.552;2022-11-15T15:03:03;11.40;69.20
68813;DHT22;55808;48.112;11.552;2022-11-15T15:05:39;11.40;69.30
68813;DHT22;55808;48.112;11.552;2022-11-15T15:08:05;11.30;70.70
68813;DHT22;55808;48.112;11.552;2022-11-15T15:10:33;11.20;70.00
68813;DHT22;55808;48.112;11.552;2022-11-15T15:13:00;11.40;68.70
68813;DHT22;55808;48.112;11.552;2022-11-15T15:15:31;11.50;68.50
68813;DHT22;55808;48.112;11.552;2022-11-15T15:17:56;11.20;70.30
68813;DHT22;55808;48.112;11.552;2022-11-15T15:20:22;10.90;72.30
68813;DHT22;55808;48.112;11.552;2022-11-15T15:22:48;10.90;71.60
68813;DHT22;55808;48.112;11.552;2022-11-15T15:27:52;10.50;74.70
68813;DHT22;55808;48.112;11.552;2022-11-15T15:30:18;10.50;76.50
68813;DHT22;55808;48.112;11.552;2022-11-15T15:32:44;10.40;77.30
68813;DHT22;55808;48.112;11.552;2022-11-15T15:35:14;10.40;79.40
68813;DHT22;55808;48.112;11.552;2022-11-15T15:37:41;10.30;80.40
68813;DHT22;55808;48.112;11.552;2022-11-15T15:40:27;10.20;82.70
68813;DHT22;55808;48.112;11.552;2022-11-15T15:42:53;10.30;84.60
68813;DHT22;55808;48.112;11.552;2022-11-15T15:45:19;10.10;85.10
68813;DHT22;55808;48.112;11.552;2022-11-15T15:47:45;10.20;85.90
68813;DHT22;55808;48.112;11.552;2022-11-15T15:50:23;10.20;87.30
68813;DHT22;55808;48.112;11.552;2022-11-15T15:52:50;10.20;87.80
68813;DHT22;55808;48.112;11.552;2022-11-15T15:55:16;10.00;88.90
68813;DHT22;55808;48.112;11.552;2022-11-15T15:57:42;10.00;89.50
68813;DHT22;55808;48.112;11.552;2022-11-15T16:00:09;9.80;90.90
68813;DHT22;55808;48.112;11.552;2022-11-15T16:02:35;9.80;90.70
68813;DHT22;55808;48.112;11.552;2022-11-15T16:05:00;9.70;91.20
68813;DHT22;55808;48.112;11.552;2022-11-15T16:07:26;9.60;91.30
68813;DHT22;55808;48.112;11.552;2022-11-15T16:09:54;9.50;91.80
68813;DHT22;55808;48.112;11.552;2022-11-15T16:12:29;9.50;92.00
68813;DHT22;55808;48.112;11.552;2022-11-15T16:14:55;9.50;91.90
68813;DHT22;55808;48.112;11.552;2022-11-15T16:17:24;9.50;92.00
68813;DHT22;55808;48.112;11.552;2022-11-15T16:19:50;9.60;92.00
68813;DHT22;55808;48.112;11.552;2022-11-15T16:22:16;9.60;92.20
68813;DHT22;55808;48.112;11.552;2022-11-15T16:24:42;9.50;92.10
68813;DHT22;55808;48.112;11.552;2022-11-15T16:27:15;9.60;92.20
68813;DHT22;55808;48.112;11.552;2022-11-15T16:29:41;9.50;92.50
68813;DHT22;55808;48.112;11.552;2022-11-15T16:32:07;9.40;92.70
68813;DHT22;55808;48.112;11.552;2022-11-15T16:34:32;9.40;92.90
68813;DHT22;55808;48.112;11.552;2022-11-15T16:36:58;9.30;93.00
68813;DHT22;55808;48.112;11.552;2022-11-15T16:39:24;9.20;93.20
68813;DHT22;55808;48.112;11.552;2022-11-15T16:41:50;9.20;93.30
68813;DHT22;55808;48.112;11.552;2022-11-15T16:44:15;9.10;93.50
68813;DHT22;55808;48.112;11.552;2022-11-15T16:46:42;9.00;93.50
68813;DHT22;55808;48.112;11.552;2022-11-15T16:49:13;8.90;94.00
68813;DHT22;55808;48.112;11.552;2022-11-15T16:51:41;8.80;94.30
68813;DHT22;55808;48.112;11.552;2022-11-15T16:54:09;8.70;94.40
68813;DHT22;55808;48.112;11.552;2022-11-15T16:56:35;8.70;94.10
68813;DHT22;55808;48.112;11.552;2022-11-15T16:59:01;8.60;94.70
68813;DHT22;55808;48.112;11.552;2022-11-15T17:01:31;8.50;95.00
68813;DHT22;55808;48.112;11.552;2022-11-15T17:03:57;8.50;94.90
68813;DHT22;55808;48.112;11.552;2022-11-15T17:06:40;8.50;95.10
68813;DHT22;55808;48.112;11.552;2022-11-15T17:09:19;8.40;95.50
68813;DHT22;55808;48.112;11.552;2022-11-15T17:11:48;8.30;95.10
68813;DHT22;55808;48.112;11.552;2022-11-15T17:14:16;8.30;95.40
68813;DHT22;55808;48.112;11.552;2022-11-15T17:16:41;8.20;95.90
68813;DHT22;55808;48.112;11.552;2022-11-15T17:19:19;8.10;95.90
68813;DHT22;55808;48.112;11.552;2022-11-15T17:21:46;8.00;96.60
68813;DHT22;55808;48.112;11.552;2022-11-15T17:24:13;8.00;96.50
68813;DHT22;55808;48.112;11.552;2022-11-15T17:26:39;7.90;96.60
68813;DHT22;55808;48.112;11.552;2022-11-15T17:29:07;8.00;96.70
68813;DHT22;55808;48.112;11.552;2022-11-15T17:31:34;8.00;96.50
68813;DHT22;55808;48.112;11.552;2022-11-15T17:34:01;8.00;96.40
68813;DHT22;55808;48.112;11.552;2022-11-15T17:36:27;8.00;96.30
68813;DHT22;55808;48.112;11.552;2022-11-15T17:38:53;8.00;96.20
68813;DHT22;55808;48.112;11.552;2022-11-15T17:41:19;7.90;96.20
68813;DHT22;55808;48.112;11.552;2022-11-15T17:43:47;7.90;96.30
68813;DHT22;55808;48.112;11.552;2022-11-15T17:46:16;7.80;97.20